Time;durP1;ratioP1;P1;durP2;ratioP2;P2;SDS_P1;SDS_P2;PMS_P1;PMS_P2;Temp;Humidity;BMP_temperature;BMP_pressure;BME280_temperature;BME280_humidity;BME280_pressure;Samples;Min_cycle;Max_cycle;Signal;HPM_P1;HPM_P2
2021/10/07 00:02:10;;;;;;;0.30;0.30;;;9.60;99.90;;;;;;5013309;28;20971;-85
2021/10/07 00:04:36;;;;;;;2.57;0.40;;;9.60;99.90;;;;;;5013603;28;20455;-85
2021/10/07 00:07:03;;;;;;;0.60;0.40;;;9.60;99.90;;;;;;5013637;28;20447;-85
2021/10/07 00:09:32;;;;;;;0.40;0.30;;;9.70;99.90;;;;;;5015137;28;20451;-85
2021/10/07 00:12:01;;;;;;;0.43;0.43;;;9.70;99.90;;;;;;5017534;28;20478;-85
2021/10/07 00:14:27;;;;;;;0.50;0.30;;;9.70;99.90;;;;;;5017599;28;20447;-85
2021/10/07 00:16:54;;;;;;;0.40;0.40;;;9.70;99.90;;;;;;5017176;28;20856;-85
2021/10/07 00:19:21;;;;;;;0.50;0.50;;;9.70;99.90;;;;;;5017269;28;20442;-85
2021/10/07 00:21:48;;;;;;;0.30;0.30;;;9.70;99.90;;;;;;5017160;28;20466;-85
2021/10/07 00:24:15;;;;;;;0.33;0.33;;;9.70;99.90;;;;;;5017439;28;20455;-85
2021/10/07 00:26:45;;;;;;;0.30;0.30;;;9.70;99.90;;;;;;5017103;28;20440;-85
2021/10/07 00:29:33;;;;;;;0.30;0.30;;;9.70;99.90;;;;;;5017404;28;20518;-85
2021/10/07 00:32:03;;;;;;;0.30;0.30;;;9.70;99.90;;;;;;5017261;28;20474;-85
2021/10/07 00:34:38;;;;;;;0.30;0.30;;;9.70;99.90;;;;;;5017297;28;20462;-86
2021/10/07 00:37:09;;;;;;;0.40;0.30;;;9.70;99.90;;;;;;5017181;28;20521;-85
2021/10/07 00:39:35;;;;;;;0.30;0.20;;;9.70;99.90;;;;;;5017220;28;20436;-85
2021/10/07 00:42:03;;;;;;;0.40;0.30;;;9.70;99.90;;;;;;5017119;28;20514;-85
2021/10/07 00:44:35;;;;;;;0.30;0.30;;;9.70;99.90;;;;;;5017136;28;20439;-86
2021/10/07 00:47:03;;;;;;;0.60;0.40;;;9.70;99.90;;;;;;5016590;28;20483;-85
2021/10/07 00:49:32;;;;;;;0.33;0.27;;;9.70;99.90;;;;;;5017081;28;20482;-86
2021/10/07 00:52:00;;;;;;;0.40;0.30;;;9.70;99.90;;;;;;5016916;28;20475;-85
2021/10/07 00:54:28;;;;;;;1.57;0.60;;;9.70;99.90;;;;;;5017014;28;20440;-86
2021/10/07 00:56:55;;;;;;;0.30;0.30;;;9.70;99.90;;;;;;5016917;28;20994;-86
2021/10/07 00:59:24;;;;;;;0.40;0.30;;;9.60;99.90;;;;;;5016898;28;20470;-86
2021/10/07 01:01:52;;;;;;;0.70;0.47;;;9.60;99.90;;;;;;5016529;28;20479;-86
2021/10/07 01:04:19;;;;;;;0.57;0.57;;;9.60;99.90;;;;;;5016917;28;20458;-86
2021/10/07 01:06:46;;;;;;;0.30;0.20;;;9.60;99.90;;;;;;5016739;28;20448;-86
2021/10/07 01:09:13;;;;;;;0.40;0.30;;;9.70;99.90;;;;;;5016385;28;20939;-86
2021/10/07 01:11:40;;;;;;;0.30;0.30;;;9.70;99.90;;;;;;5016465;28;20455;-86
2021/10/07 01:14:07;;;;;;;0.30;0.30;;;9.70;99.90;;;;;;5016931;28;20439;-86
2021/10/07 01:16:35;;;;;;;0.40;0.30;;;9.80;99.90;;;;;;5016468;28;20483;-86
2021/10/07 01:19:03;;;;;;;0.30;0.30;;;9.80;99.90;;;;;;5016676;28;20447;-86
2021/10/07 01:21:31;;;;;;;0.30;0.20;;;9.80;99.90;;;;;;5015471;28;20995;-86
2021/10/07 01:23:58;;;;;;;0.40;0.30;;;9.80;99.90;;;;;;5016472;28;20455;-86
2021/10/07 01:26:26;;;;;;;0.40;0.30;;;9.80;99.90;;;;;;5016826;28;20784;-86
2021/10/07 01:28:53;;;;;;;0.30;0.20;;;9.80;99.90;;;;;;5016825;28;20785;-86
2021/10/07 01:31:20;;;;;;;0.30;0.20;;;9.80;99.90;;;;;;5016306;28;20474;-86
2021/10/07 01:33:47;;;;;;;0.30;0.30;;;9.80;99.90;;;;;;5016262;28;20939;-86
2021/10/07 01:36:14;;;;;;;0.30;0.30;;;9.80;99.90;;;;;;5016136;28;20452;-86
2021/10/07 01:38:42;;;;;;;0.40;0.30;;;9.80;99.90;;;;;;5016172;28;20446;-86
2021/10/07 01:41:09;;;;;;;0.30;0.30;;;9.80;99.90;;;;;;5015852;28;20522;-86
2021/10/07 01:43:36;;;;;;;0.30;0.30;;;9.80;99.90;;;;;;5016060;28;20482;-86
2021/10/07 01:46:03;;;;;;;0.30;0.27;;;9.80;99.90;;;;;;5015688;28;20479;-86
2021/10/07 01:48:31;;;;;;;0.30;0.30;;;9.80;99.90;;;;;;5015842;28;20417;-85
2021/10/07 01:50:58;;;;;;;0.50;0.30;;;9.80;99.90;;;;;;5015882;28;20831;-86
2021/10/07 01:53:25;;;;;;;0.30;0.30;;;9.80;99.90;;;;;;5015880;28;20452;-86
2021/10/07 01:55:53;;;;;;;0.30;0.30;;;9.80;99.90;;;;;;5015693;28;20478;-81
2021/10/07 01:58:20;;;;;;;0.60;0.43;;;9.80;99.90;;;;;;5015332;28;20483;-82
2021/10/07 02:00:47;;;;;;;0.37;0.30;;;9.90;99.90;;;;;;5015921;28;20482;-82
2021/10/07 02:03:14;;;;;;;0.33;0.30;;;9.90;99.90;;;;;;5015559;28;20447;-82
2021/10/07 02:05:41;;;;;;;0.40;0.30;;;9.90;99.90;;;;;;5015643;28;20444;-82
2021/10/07 02:08:07;;;;;;;0.40;0.30;;;9.90;99.90;;;;;;5015324;28;20455;-82
2021/10/07 02:10:34;;;;;;;0.30;0.30;;;9.90;99.90;;;;;;5015310;28;20471;-82
2021/10/07 02:13:02;;;;;;;0.40;0.30;;;9.90;99.90;;;;;;5015597;28;20447;-83
2021/10/07 02:15:29;;;;;;;0.40;0.30;;;9.90;99.90;;;;;;5015110;28;20439;-83
2021/10/07 02:17:56;;;;;;;0.80;0.33;;;9.90;99.90;;;;;;5015103;28;20489;-87
2021/10/07 02:20:23;;;;;;;0.30;0.30;;;9.90;99.90;;;;;;5015472;28;20475;-84
2021/10/07 02:22:50;;;;;;;0.37;0.30;;;9.80;99.90;;;;;;5015074;28;20436;-86
2021/10/07 02:25:17;;;;;;;0.30;0.30;;;9.80;99.90;;;;;;5015254;28;21018;-86
2021/10/07 02:27:44;;;;;;;0.40;0.30;;;9.80;99.90;;;;;;5014940;28;20935;-86
2021/10/07 02:30:15;;;;;;;0.40;0.30;;;9.80;99.90;;;;;;5015186;28;20483;-86
2021/10/07 02:32:41;;;;;;;0.30;0.20;;;9.90;99.90;;;;;;5014837;28;20432;-86
2021/10/07 02:35:09;;;;;;;0.90;0.30;;;9.90;99.90;;;;;;5014763;28;20968;-84
2021/10/07 02:37:36;;;;;;;0.40;0.30;;;9.80;99.90;;;;;;5014947;28;20490;-86
2021/10/07 02:40:04;;;;;;;0.30;0.30;;;9.80;99.90;;;;;;5014873;28;20448;-83
2021/10/07 02:42:31;;;;;;;0.30;0.30;;;9.80;99.90;;;;;;5014795;28;20867;-83
2021/10/07 02:44:59;;;;;;;0.30;0.30;;;9.80;99.90;;;;;;5014737;28;20615;-86
2021/10/07 02:47:27;;;;;;;0.40;0.30;;;9.90;99.90;;;;;;5014401;28;20486;-84
2021/10/07 02:49:54;;;;;;;6.97;2.40;;;9.90;99.90;;;;;;5014487;28;20939;-84
2021/10/07 02:52:21;;;;;;;0.40;0.30;;;9.90;99.90;;;;;;5014435;28;20454;-84
2021/10/07 02:54:47;;;;;;;0.60;0.30;;;9.90;99.90;;;;;;5014282;28;20462;-84
2021/10/07 02:57:14;;;;;;;0.30;0.30;;;9.90;99.90;;;;;;5014278;28;20479;-84
2021/10/07 02:59:41;;;;;;;0.53;0.30;;;9.90;99.90;;;;;;5014520;28;20462;-84
2021/10/07 03:02:08;;;;;;;0.30;0.30;;;9.90;99.90;;;;;;5014391;28;20476;-84
2021/10/07 03:04:36;;;;;;;0.30;0.20;;;9.90;99.90;;;;;;5014128;28;20947;-84
2021/10/07 03:07:03;;;;;;;0.30;0.30;;;9.90;99.90;;;;;;5014233;28;20448;-84
2021/10/07 03:09:30;;;;;;;0.50;0.30;;;9.90;99.90;;;;;;5014338;28;20455;-84
2021/10/07 03:11:57;;;;;;;0.40;0.30;;;9.90;99.90;;;;;;5013967;28;20459;-84
2021/10/07 03:14:23;;;;;;;0.40;0.40;;;9.80;99.90;;;;;;5014347;28;20439;-84
2021/10/07 03:16:50;;;;;;;0.50;0.30;;;9.80;99.90;;;;;;5013911;28;20947;-83
2021/10/07 03:19:17;;;;;;;0.70;0.30;;;9.80;99.90;;;;;;5014218;28;20451;-84
2021/10/07 03:21:45;;;;;;;0.40;0.40;;;9.80;99.90;;;;;;5014055;28;20467;-84
2021/10/07 03:24:12;;;;;;;0.40;0.40;;;9.80;99.90;;;;;;5013818;28;20939;-84
2021/10/07 03:26:39;;;;;;;0.30;0.30;;;9.80;99.90;;;;;;5014078;28;20447;-84
2021/10/07 03:29:06;;;;;;;0.40;0.40;;;9.80;99.90;;;;;;5014053;28;20448;-84
2021/10/07 03:31:32;;;;;;;0.50;0.37;;;9.90;99.90;;;;;;5013791;28;20455;-84
2021/10/07 03:33:59;;;;;;;3.00;0.57;;;9.90;99.90;;;;;;5014073;28;20798;-84
2021/10/07 03:36:26;;;;;;;0.40;0.30;;;9.90;99.90;;;;;;5013636;28;20451;-84
2021/10/07 03:38:54;;;;;;;0.40;0.30;;;9.90;99.90;;;;;;5013583;28;20486;-84
2021/10/07 03:41:21;;;;;;;0.30;0.30;;;9.90;99.90;;;;;;5013579;28;21013;-84
2021/10/07 03:43:48;;;;;;;0.30;0.30;;;9.90;99.90;;;;;;5013365;28;20467;-84
2021/10/07 03:46:16;;;;;;;0.30;0.30;;;9.90;99.90;;;;;;5013603;28;20467;-84
2021/10/07 03:48:43;;;;;;;0.40;0.30;;;9.90;99.90;;;;;;5013689;28;20441;-84
2021/10/07 03:51:10;;;;;;;0.40;0.40;;;9.90;99.90;;;;;;5013408;28;20451;-84
2021/10/07 03:53:37;;;;;;;0.30;0.20;;;9.90;99.90;;;;;;5013480;28;20801;-84
2021/10/07 03:56:06;;;;;;;0.40;0.30;;;9.90;99.90;;;;;;5013664;28;20455;-84
2021/10/07 03:58:32;;;;;;;0.40;0.40;;;9.90;99.90;;;;;;5013349;28;20483;-84
2021/10/07 04:00:59;;;;;;;0.93;0.40;;;9.90;99.90;;;;;;5013306;28;20475;-84
2021/10/07 04:03:26;;;;;;;0.30;0.30;;;9.90;99.90;;;;;;5014215;28;20466;-84
2021/10/07 04:05:54;;;;;;;0.40;0.30;;;9.90;99.90;;;;;;5013386;28;20436;-84
2021/10/07 04:08:21;;;;;;;0.80;0.50;;;9.80;99.90;;;;;;5013686;28;20480;-84
2021/10/07 04:10:50;;;;;;;0.40;0.30;;;9.80;99.90;;;;;;5013376;28;20460;-84
2021/10/07 04:13:18;;;;;;;0.40;0.37;;;9.80;99.90;;;;;;5013760;28;20482;-84
2021/10/07 04:15:46;;;;;;;0.30;0.20;;;9.80;99.90;;;;;;5013522;28;20530;-84
2021/10/07 04:18:13;;;;;;;0.40;0.30;;;9.80;99.90;;;;;;5013200;28;20574;-83
2021/10/07 04:20:40;;;;;;;0.70;0.43;;;9.80;99.90;;;;;;5012996;28;20874;-83
2021/10/07 04:23:07;;;;;;;0.33;0.33;;;9.80;99.90;;;;;;5013098;28;20456;-83
2021/10/07 04:25:33;;;;;;;0.40;0.30;;;9.80;99.90;;;;;;5013114;28;20447;-83
2021/10/07 04:28:01;;;;;;;0.30;0.30;;;9.80;99.90;;;;;;5013190;28;20447;-83
2021/10/07 04:30:29;;;;;;;0.30;0.30;;;9.80;99.90;;;;;;5013191;28;20823;-83
2021/10/07 04:32:56;;;;;;;0.60;0.60;;;9.80;99.90;;;;;;5013065;28;20451;-83
2021/10/07 04:35:23;;;;;;;0.40;0.33;;;9.80;99.90;;;;;;5013059;28;20957;-82
2021/10/07 04:37:50;;;;;;;0.40;0.40;;;9.80;99.90;;;;;;5012975;28;20471;-83
2021/10/07 04:40:17;;;;;;;0.40;0.40;;;9.80;99.90;;;;;;5013261;28;20475;-83
2021/10/07 04:42:43;;;;;;;0.33;0.30;;;9.80;99.90;;;;;;5013277;28;20455;-84
2021/10/07 04:45:10;;;;;;;0.70;0.70;;;9.80;99.90;;;;;;5013275;28;20455;-82
2021/10/07 04:47:39;;;;;;;2.10;0.40;;;9.80;99.90;;;;;;5012845;28;20475;-82
2021/10/07 04:50:07;;;;;;;0.40;0.40;;;9.80;99.90;;;;;;5012908;28;20427;-82
2021/10/07 04:52:34;;;;;;;0.50;0.40;;;9.90;99.90;;;;;;5013171;28;20455;-81
2021/10/07 04:55:01;;;;;;;0.30;0.30;;;9.80;99.90;;;;;;5012871;28;20442;-81
2021/10/07 04:57:29;;;;;;;1.03;0.30;;;9.80;99.90;;;;;;5015457;28;20833;-81
2021/10/07 04:59:55;;;;;;;0.30;0.20;;;9.80;99.90;;;;;;5016656;28;20454;-80
2021/10/07 05:02:22;;;;;;;0.40;0.30;;;9.80;99.90;;;;;;5016536;28;20954;-80
2021/10/07 05:04:50;;;;;;;0.30;0.30;;;9.80;99.90;;;;;;5016443;28;20435;-81
2021/10/07 05:07:17;;;;;;;0.43;0.40;;;9.80;99.90;;;;;;5016365;28;20439;-81
2021/10/07 05:09:44;;;;;;;0.30;0.30;;;9.80;99.90;;;;;;5016574;28;20470;-80
2021/10/07 05:12:11;;;;;;;0.33;0.30;;;9.90;99.90;;;;;;5016594;28;20467;-87
2021/10/07 05:14:37;;;;;;;0.40;0.30;;;9.90;99.90;;;;;;5016751;28;20443;-87
2021/10/07 05:17:04;;;;;;;0.40;0.30;;;9.90;99.90;;;;;;5016793;28;20451;-87
2021/10/07 05:19:31;;;;;;;0.40;0.30;;;9.90;99.90;;;;;;5016352;28;20490;-86
2021/10/07 05:21:59;;;;;;;0.30;0.30;;;9.80;99.90;;;;;;5016611;28;20473;-87
2021/10/07 05:24:26;;;;;;;0.40;0.30;;;9.80;99.90;;;;;;5016251;28;20978;-86
2021/10/07 05:26:53;;;;;;;0.30;0.30;;;9.90;99.90;;;;;;5016148;28;20474;-86
2021/10/07 05:29:19;;;;;;;0.30;0.30;;;9.90;99.90;;;;;;5016594;28;20447;-87
2021/10/07 05:31:47;;;;;;;0.30;0.30;;;9.90;99.90;;;;;;5016187;28;20818;-86
2021/10/07 05:34:14;;;;;;;0.30;0.30;;;9.90;99.90;;;;;;5016503;28;20450;-86
2021/10/07 05:36:41;;;;;;;0.37;0.37;;;9.90;99.90;;;;;;5016368;28;20931;-87
2021/10/07 05:39:09;;;;;;;0.47;0.30;;;9.90;99.90;;;;;;5016201;28;20523;-86
2021/10/07 05:41:35;;;;;;;0.47;0.47;;;9.90;99.90;;;;;;5016332;28;20456;-86
2021/10/07 05:44:02;;;;;;;0.30;0.30;;;9.90;99.90;;;;;;5016190;28;20451;-86
2021/10/07 05:46:29;;;;;;;0.87;0.50;;;9.90;99.90;;;;;;5015828;28;20490;-86
2021/10/07 05:48:56;;;;;;;1.60;0.60;;;9.90;99.90;;;;;;5016165;28;20440;-86
2021/10/07 05:51:22;;;;;;;0.40;0.40;;;9.80;99.90;;;;;;5016412;28;20471;-86
2021/10/07 05:53:49;;;;;;;0.87;0.40;;;9.80;99.90;;;;;;5016683;28;20636;-87
2021/10/07 05:56:17;;;;;;;0.30;0.30;;;9.80;99.90;;;;;;5015625;28;20935;-87
2021/10/07 05:58:44;;;;;;;0.40;0.40;;;9.80;99.90;;;;;;5015420;28;21021;-86
2021/10/07 06:01:11;;;;;;;0.30;0.30;;;9.80;99.90;;;;;;5015465;28;20456;-86
2021/10/07 06:03:38;;;;;;;0.50;0.33;;;9.80;99.90;;;;;;5015752;28;20455;-86
2021/10/07 06:06:05;;;;;;;0.30;0.30;;;9.80;99.90;;;;;;5015643;28;20808;-86
2021/10/07 06:08:32;;;;;;;0.50;0.50;;;9.90;99.90;;;;;;5015302;28;20443;-86
2021/10/07 06:10:59;;;;;;;0.40;0.40;;;9.90;99.90;;;;;;5015432;28;20474;-86
2021/10/07 06:13:27;;;;;;;0.30;0.30;;;9.90;99.90;;;;;;5015738;28;20451;-86
2021/10/07 06:15:53;;;;;;;0.40;0.40;;;10.00;99.90;;;;;;5015390;28;20439;-86
2021/10/07 06:18:21;;;;;;;0.50;0.50;;;10.00;99.90;;;;;;5015508;28;20511;-86
2021/10/07 06:20:48;;;;;;;0.90;0.40;;;10.00;99.90;;;;;;5015732;28;20518;-86
2021/10/07 06:23:14;;;;;;;0.40;0.40;;;10.00;99.90;;;;;;5016029;28;20447;-86
2021/10/07 06:25:41;;;;;;;0.47;0.47;;;10.00;99.90;;;;;;5017079;28;20455;-86
2021/10/07 06:28:08;;;;;;;0.30;0.30;;;10.10;99.90;;;;;;5017004;28;20454;-86
2021/10/07 06:30:37;;;;;;;0.50;0.50;;;10.10;99.90;;;;;;5015449;28;20459;-83
2021/10/07 06:33:04;;;;;;;0.30;0.30;;;10.10;99.90;;;;;;5015353;28;20456;-86
2021/10/07 06:35:31;;;;;;;0.30;0.30;;;10.20;99.90;;;;;;5015070;28;20848;-87
2021/10/07 06:37:58;;;;;;;0.77;0.40;;;10.20;99.90;;;;;;5018240;28;20439;-86
2021/10/07 06:40:25;;;;;;;0.30;0.30;;;10.20;99.90;;;;;;5017141;28;20482;-86
2021/10/07 06:42:52;;;;;;;0.50;0.40;;;10.20;99.90;;;;;;5016405;28;20455;-87
2021/10/07 06:45:19;;;;;;;0.40;0.30;;;10.20;99.90;;;;;;5016763;28;20455;-87
2021/10/07 06:47:47;;;;;;;0.30;0.30;;;10.20;99.90;;;;;;5016625;28;20990;-86
2021/10/07 06:50:14;;;;;;;0.50;0.30;;;10.30;99.90;;;;;;5017579;28;20475;-88
2021/10/07 06:52:41;;;;;;;0.30;0.30;;;10.30;99.90;;;;;;5018286;28;20435;-87
2021/10/07 06:55:11;;;;;;;0.40;0.30;;;10.30;99.90;;;;;;5017806;28;20438;-88
2021/10/07 06:57:38;;;;;;;0.50;0.30;;;10.30;99.90;;;;;;5017784;28;20436;-88
2021/10/07 07:00:06;;;;;;;0.40;0.40;;;10.40;99.90;;;;;;5017144;28;20463;-87
2021/10/07 07:02:35;;;;;;;0.47;0.47;;;10.40;99.90;;;;;;5016139;28;20447;-88
2021/10/07 07:05:05;;;;;;;0.30;0.30;;;10.40;99.90;;;;;;5015709;28;20435;-87
2021/10/07 07:07:32;;;;;;;0.60;0.40;;;10.40;99.90;;;;;;5015212;28;20432;-88
2021/10/07 07:09:59;;;;;;;0.57;0.57;;;10.50;99.90;;;;;;5014459;28;20912;-87
2021/10/07 07:12:25;;;;;;;0.30;0.30;;;10.50;99.90;;;;;;5014855;28;20457;-88
2021/10/07 07:14:52;;;;;;;0.80;0.80;;;10.50;99.90;;;;;;5015688;28;20431;-88
2021/10/07 07:17:19;;;;;;;0.40;0.40;;;10.50;99.90;;;;;;5014684;28;20474;-88
2021/10/07 07:19:46;;;;;;;0.50;0.50;;;10.50;99.90;;;;;;5013976;28;20509;-88
2021/10/07 07:22:15;;;;;;;0.40;0.40;;;10.60;99.90;;;;;;5014621;28;20474;-88
2021/10/07 07:24:41;;;;;;;0.60;0.30;;;10.60;99.90;;;;;;5014579;28;20939;-87
2021/10/07 07:27:11;;;;;;;0.50;0.50;;;10.60;99.90;;;;;;5014661;28;20443;-88
2021/10/07 07:29:37;;;;;;;0.40;0.30;;;10.60;99.90;;;;;;5014501;28;20508;-87
2021/10/07 07:32:05;;;;;;;0.40;0.30;;;10.60;99.90;;;;;;5014311;28;20827;-87
2021/10/07 07:34:31;;;;;;;0.40;0.37;;;10.70;99.90;;;;;;5014190;28;20950;-87
2021/10/07 07:36:58;;;;;;;0.80;0.80;;;10.70;99.90;;;;;;5014279;28;20459;-87
2021/10/07 07:39:27;;;;;;;0.40;0.30;;;10.80;99.90;;;;;;5014353;28;20483;-87
2021/10/07 07:41:54;;;;;;;0.67;0.67;;;10.80;99.90;;;;;;5014197;28;20482;-85
2021/10/07 07:44:20;;;;;;;0.40;0.40;;;10.80;99.90;;;;;;5014027;28;20813;-85
2021/10/07 07:46:47;;;;;;;1.37;0.40;;;10.80;99.90;;;;;;5013460;28;20487;-85
2021/10/07 07:49:14;;;;;;;4.30;0.60;;;10.80;99.90;;;;;;5014791;28;20454;-85
2021/10/07 07:51:41;;;;;;;0.70;0.60;;;10.80;99.90;;;;;;5013469;28;20459;-85
2021/10/07 07:54:08;;;;;;;0.70;0.60;;;10.90;99.90;;;;;;5013526;28;20451;-86
2021/10/07 07:56:36;;;;;;;0.40;0.40;;;10.90;99.90;;;;;;5013903;28;20439;-85
2021/10/07 07:59:03;;;;;;;0.80;0.80;;;11.00;99.90;;;;;;5013853;28;20581;-85
2021/10/07 08:01:31;;;;;;;3.60;0.53;;;11.00;99.90;;;;;;5018063;28;20443;-86
2021/10/07 08:03:57;;;;;;;0.57;0.57;;;11.10;99.90;;;;;;5014253;28;20455;-87
2021/10/07 08:06:24;;;;;;;1.07;0.97;;;11.10;99.90;;;;;;5013656;28;20450;-87
2021/10/07 08:08:51;;;;;;;0.50;0.50;;;11.20;99.90;;;;;;5013977;28;20451;-87
2021/10/07 08:11:18;;;;;;;0.70;0.70;;;11.30;99.90;;;;;;5014000;28;20467;-87
2021/10/07 08:13:46;;;;;;;1.73;0.70;;;11.40;99.90;;;;;;5013898;28;20439;-87
2021/10/07 08:16:13;;;;;;;1.23;0.73;;;11.40;99.90;;;;;;5013942;28;20451;-87
2021/10/07 08:18:39;;;;;;;2.87;0.80;;;11.40;99.90;;;;;;5013708;28;20483;-87
2021/10/07 08:21:06;;;;;;;0.57;0.47;;;11.40;99.90;;;;;;5013648;28;20458;-86
2021/10/07 08:23:35;;;;;;;1.03;0.80;;;11.40;99.90;;;;;;5013589;28;20446;-86
2021/10/07 08:26:03;;;;;;;4.00;1.10;;;11.40;99.90;;;;;;5013436;28;20466;-86
2021/10/07 08:28:30;;;;;;;0.60;0.60;;;11.50;99.90;;;;;;5013549;28;20458;-86
2021/10/07 08:30:58;;;;;;;0.70;0.50;;;11.50;99.90;;;;;;5015353;28;20991;-87
2021/10/07 08:33:25;;;;;;;1.40;0.40;;;11.50;99.90;;;;;;5017187;28;20443;-83
2021/10/07 08:35:52;;;;;;;3.67;0.80;;;11.50;99.90;;;;;;5017458;28;20452;-85
2021/10/07 08:38:19;;;;;;;1.83;0.77;;;11.60;99.90;;;;;;5017378;28;20455;-85
2021/10/07 08:40:46;;;;;;;0.77;0.47;;;11.60;99.90;;;;;;5017144;28;20459;-85
2021/10/07 08:43:12;;;;;;;1.63;0.83;;;11.60;99.90;;;;;;5016969;28;20451;-84
2021/10/07 08:45:39;;;;;;;1.83;0.90;;;11.60;99.90;;;;;;5016723;28;20443;-85
2021/10/07 08:48:08;;;;;;;1.60;0.83;;;11.50;99.90;;;;;;5015923;28;21132;-84
2021/10/07 08:50:36;;;;;;;1.37;0.93;;;11.60;99.90;;;;;;5016059;28;20463;-86
2021/10/07 08:53:06;;;;;;;1.10;0.77;;;11.50;99.90;;;;;;5017055;28;20494;-85
2021/10/07 08:55:32;;;;;;;1.13;0.50;;;11.60;99.90;;;;;;5016941;28;20430;-85
2021/10/07 08:57:59;;;;;;;1.90;0.70;;;11.60;99.90;;;;;;5016675;28;20423;-85
2021/10/07 09:00:26;;;;;;;0.60;0.60;;;11.60;99.90;;;;;;5016759;28;20495;-85
2021/10/07 09:02:53;;;;;;;1.17;0.93;;;11.70;99.90;;;;;;5016548;28;20782;-84
2021/10/07 09:05:24;;;;;;;1.10;0.60;;;11.80;99.90;;;;;;5016535;28;20417;-85
2021/10/07 09:08:00;;;;;;;0.97;0.87;;;11.80;99.90;;;;;;5016739;28;20440;-84
2021/10/07 09:10:42;;;;;;;0.40;0.37;;;11.80;99.90;;;;;;5016557;28;20455;-84
2021/10/07 09:13:12;;;;;;;1.10;0.67;;;11.80;99.90;;;;;;5016896;28;20436;-83
2021/10/07 09:15:46;;;;;;;1.40;0.60;;;11.90;99.90;;;;;;5016584;28;20436;-84
2021/10/07 09:18:13;;;;;;;1.70;1.07;;;12.00;99.90;;;;;;5016182;28;20442;-83
2021/10/07 09:20:43;;;;;;;2.03;1.87;;;12.10;99.90;;;;;;5016356;28;20496;-83
2021/10/07 09:23:13;;;;;;;0.60;0.60;;;12.10;99.90;;;;;;5016087;28;20938;-83
2021/10/07 09:26:01;;;;;;;1.40;0.70;;;12.10;99.90;;;;;;5016353;28;20424;-83
2021/10/07 09:28:29;;;;;;;0.50;0.50;;;12.20;99.90;;;;;;5016315;28;20450;-83
2021/10/07 09:30:59;;;;;;;1.20;0.67;;;12.20;99.90;;;;;;5016425;28;20468;-83
2021/10/07 09:33:28;;;;;;;0.60;0.57;;;12.30;99.90;;;;;;5016145;28;20436;-83
2021/10/07 09:38:49;;;;;;;0.50;0.50;;;12.30;99.90;;;;;;5091581;27;20853;-83
2021/10/07 09:41:18;;;;;;;0.60;0.60;;;12.40;99.90;;;;;;5090660;28;20830;-83
2021/10/07 09:43:48;;;;;;;0.57;0.57;;;12.40;99.90;;;;;;5090982;28;20794;-83
2021/10/07 09:46:40;;;;;;;0.97;0.50;;;12.40;99.90;;;;;;5090911;28;20425;-83
2021/10/07 09:49:07;;;;;;;0.50;0.40;;;12.40;99.90;;;;;;5090535;28;20427;-83
2021/10/07 09:51:42;;;;;;;0.50;0.50;;;12.40;99.90;;;;;;5090389;28;21010;-83
2021/10/07 09:54:11;;;;;;;0.70;0.50;;;12.50;99.90;;;;;;5090818;28;20428;-83
2021/10/07 09:56:38;;;;;;;2.90;0.77;;;12.50;99.90;;;;;;5090681;28;20425;-83
2021/10/07 09:59:10;;;;;;;1.10;1.10;;;12.50;99.90;;;;;;5090391;28;20428;-83
2021/10/07 10:01:38;;;;;;;0.70;0.60;;;12.50;99.90;;;;;;5090645;28;20478;-83
2021/10/07 10:04:05;;;;;;;0.70;0.53;;;12.40;99.90;;;;;;5090554;28;20435;-83
2021/10/07 10:06:32;;;;;;;0.97;0.63;;;12.30;99.90;;;;;;5090638;28;20435;-83
2021/10/07 10:08:59;;;;;;;0.70;0.40;;;12.20;99.90;;;;;;5090576;28;20448;-81
2021/10/07 10:11:27;;;;;;;0.70;0.53;;;12.20;99.90;;;;;;5090818;28;20483;-83
2021/10/07 10:13:54;;;;;;;2.67;0.60;;;12.20;99.90;;;;;;5091038;28;20439;-82
2021/10/07 10:16:21;;;;;;;0.50;0.50;;;12.20;99.90;;;;;;5091395;28;20436;-81
2021/10/07 10:18:58;;;;;;;0.40;0.30;;;12.20;99.90;;;;;;5092423;28;20455;-85
2021/10/07 10:21:26;;;;;;;0.40;0.40;;;12.20;99.90;;;;;;5090208;28;20459;-83
2021/10/07 10:23:54;;;;;;;0.50;0.30;;;12.20;99.90;;;;;;5089889;28;20908;-84
2021/10/07 10:26:21;;;;;;;0.40;0.40;;;12.20;99.90;;;;;;5089914;28;20440;-84
2021/10/07 10:28:52;;;;;;;0.40;0.40;;;12.20;99.90;;;;;;5090120;28;20425;-84
2021/10/07 10:31:28;;;;;;;0.50;0.47;;;12.20;99.90;;;;;;5090034;28;20468;-84
2021/10/07 10:34:06;;;;;;;0.40;0.37;;;12.20;99.90;;;;;;5090040;28;20432;-84
2021/10/07 10:36:37;;;;;;;0.53;0.50;;;12.20;99.90;;;;;;5089760;28;20428;-84
2021/10/07 10:39:10;;;;;;;1.27;0.73;;;12.20;99.90;;;;;;5089604;28;20963;-84
2021/10/07 10:41:45;;;;;;;0.50;0.50;;;12.20;99.90;;;;;;5089767;28;20479;-84
2021/10/07 10:44:40;;;;;;;0.80;0.37;;;12.30;99.90;;;;;;5089535;28;20911;-83
2021/10/07 10:47:24;;;;;;;1.03;0.90;;;12.30;99.90;;;;;;5089499;28;20428;-86
2021/10/07 10:49:59;;;;;;;1.03;0.40;;;12.40;99.90;;;;;;5077887;28;20433;-83
2021/10/07 10:52:28;;;;;;;0.40;0.30;;;12.50;99.90;;;;;;5075798;28;20436;-82
2021/10/07 10:54:58;;;;;;;0.90;0.40;;;12.60;99.90;;;;;;5076162;28;20440;-83
2021/10/07 10:57:30;;;;;;;0.50;0.40;;;12.60;99.90;;;;;;5075703;28;20464;-83
2021/10/07 11:00:13;;;;;;;0.63;0.53;;;12.50;99.90;;;;;;5075933;28;20463;-83
2021/10/07 11:02:41;;;;;;;0.83;0.43;;;12.60;99.90;;;;;;5076796;28;20451;-83
2021/10/07 11:05:23;;;;;;;2.87;0.47;;;12.60;99.90;;;;;;5076133;28;20433;-83
2021/10/07 11:08:14;;;;;;;1.13;0.60;;;12.60;99.90;;;;;;5075848;28;20476;-84
2021/10/07 11:10:42;;;;;;;0.40;0.40;;;12.50;99.90;;;;;;5075662;28;20498;-83
2021/10/07 11:13:14;;;;;;;1.30;0.60;;;12.50;99.90;;;;;;5075789;28;20433;-83
2021/10/07 11:15:42;;;;;;;0.50;0.50;;;12.50;99.90;;;;;;5075476;28;20435;-85
2021/10/07 11:18:09;;;;;;;0.93;0.40;;;12.50;99.90;;;;;;5075417;28;20795;-83
2021/10/07 11:20:37;;;;;;;0.57;0.50;;;12.50;99.90;;;;;;5075564;28;20476;-83
2021/10/07 11:23:13;;;;;;;0.50;0.50;;;12.40;99.90;;;;;;5075256;28;20929;-83
2021/10/07 11:25:43;;;;;;;0.47;0.47;;;12.30;99.90;;;;;;5075884;28;20777;-83
2021/10/07 11:28:10;;;;;;;0.50;0.50;;;12.40;99.90;;;;;;5075781;28;20797;-83
2021/10/07 11:30:39;;;;;;;0.60;0.60;;;12.30;99.90;;;;;;5075271;28;21026;-83
2021/10/07 11:33:08;;;;;;;0.87;0.70;;;12.40;99.90;;;;;;5075026;28;20437;-84
2021/10/07 11:35:36;;;;;;;0.90;0.50;;;12.40;99.90;;;;;;5075362;28;20436;-84
2021/10/07 11:38:14;;;;;;;0.53;0.53;;;12.40;99.90;;;;;;5074820;28;20493;-84
2021/10/07 11:40:45;;;;;;;1.40;0.97;;;12.40;99.90;;;;;;5075198;28;20484;-84
2021/10/07 11:43:15;;;;;;;0.40;0.40;;;12.40;99.90;;;;;;5075236;28;20429;-84
2021/10/07 11:45:42;;;;;;;1.77;1.47;;;12.40;99.90;;;;;;5074833;28;20791;-84
2021/10/07 11:48:11;;;;;;;0.60;0.60;;;12.50;99.90;;;;;;5074810;28;20799;-84
2021/10/07 11:50:41;;;;;;;1.90;0.90;;;12.50;99.90;;;;;;5074990;28;20465;-83
2021/10/07 11:53:10;;;;;;;0.80;0.60;;;12.40;99.90;;;;;;5075172;28;20456;-83
2021/10/07 11:55:40;;;;;;;0.50;0.50;;;12.50;99.90;;;;;;5074810;28;20449;-84
2021/10/07 11:58:08;;;;;;;0.60;0.60;;;12.60;99.90;;;;;;5074872;28;20469;-83
2021/10/07 12:00:42;;;;;;;3.63;1.17;;;12.70;99.90;;;;;;5073757;28;20947;-84
2021/10/07 12:03:29;;;;;;;2.53;0.87;;;12.70;99.90;;;;;;5074904;28;20429;-83
2021/10/07 12:06:01;;;;;;;0.50;0.50;;;12.70;99.90;;;;;;5074613;28;20416;-83
2021/10/07 12:11:32;;;;;;;4.00;0.80;;;12.80;99.90;;;;;;5074317;28;20522;-83
2021/10/07 12:14:01;;;;;;;2.87;0.70;;;12.90;99.90;;;;;;5074517;28;20467;-82
2021/10/07 12:16:30;;;;;;;0.50;0.50;;;13.10;99.90;;;;;;5074212;28;20414;-84
2021/10/07 12:19:04;;;;;;;0.87;0.50;;;13.20;99.90;;;;;;5074395;28;20469;-83
2021/10/07 12:21:32;;;;;;;0.50;0.50;;;13.10;99.90;;;;;;5074369;28;20464;-83
2021/10/07 12:24:01;;;;;;;1.00;0.43;;;13.00;99.90;;;;;;5074453;28;20433;-83
2021/10/07 12:26:33;;;;;;;1.50;0.50;;;12.80;99.90;;;;;;5074392;28;20429;-83
2021/10/07 12:29:06;;;;;;;0.73;0.40;;;12.70;99.90;;;;;;5074199;28;20501;-83
2021/10/07 12:31:33;;;;;;;1.10;0.50;;;12.70;99.90;;;;;;5074243;28;20465;-83
2021/10/07 12:34:03;;;;;;;0.53;0.53;;;12.80;99.90;;;;;;5073992;28;20892;-84
2021/10/07 12:36:36;;;;;;;0.60;0.60;;;12.90;99.90;;;;;;5074278;28;20460;-84
2021/10/07 12:39:05;;;;;;;0.40;0.40;;;13.00;99.90;;;;;;5074486;28;20479;-83
2021/10/07 12:41:38;;;;;;;0.50;0.50;;;13.10;99.90;;;;;;5073949;28;20473;-84
2021/10/07 12:44:05;;;;;;;1.30;0.73;;;13.00;99.90;;;;;;5073764;28;20436;-84
2021/10/07 12:46:43;;;;;;;0.50;0.50;;;12.90;99.90;;;;;;5073974;28;20448;-83
2021/10/07 12:49:11;;;;;;;0.43;0.40;;;13.10;99.90;;;;;;5073907;28;20426;-84
2021/10/07 12:51:44;;;;;;;0.40;0.40;;;13.10;99.90;;;;;;5073553;28;20979;-84
2021/10/07 12:54:15;;;;;;;0.50;0.50;;;13.20;99.90;;;;;;5073934;28;20901;-84
2021/10/07 12:56:44;;;;;;;1.00;0.50;;;13.30;99.90;;;;;;5073804;28;20440;-84
2021/10/07 12:59:11;;;;;;;2.10;1.00;;;13.30;99.90;;;;;;5073817;28;20457;-84
2021/10/07 13:01:45;;;;;;;0.47;0.47;;;13.30;99.90;;;;;;5073466;28;20449;-83
2021/10/07 13:04:20;;;;;;;0.60;0.60;;;13.40;99.90;;;;;;5073700;28;20444;-83
2021/10/07 13:06:49;;;;;;;1.53;1.43;;;13.50;99.90;;;;;;5073398;28;20863;-83